Weather History for Bogalusa, LA

Change the Weather History Date:

Monday, December 2, 2013

  Actual Average Record
Temperature  
Mean Temperature 62 °F -  
Max Temperature 73 °F 66 °F 73 °F (2013)
Min Temperature 50 °F 41 °F 50 °F (2013)
Degree Days  
Heating Degree Days 4    
Growing Degree Days 12 (Base 50)    
Moisture  
Dew Point 55 °F    
Average Humidity 77    
Maximum Humidity 91    
Minimum Humidity 55    
Precipitation  
Precipitation 0.00 in - - ()
Sea Level Pressure  
Sea Level Pressure 29.88 in    
Wind  
Wind Speed 3 mph (SSW)    
Max Wind Speed 17 mph    
Max Gust Speed 22 mph    
Visibility 10 miles    
Events Rain , Thunderstorm    
Averages and records for this station are not official NWS values.
T = Trace of Precipitation, MM = Missing Value Source: NWS Daily Summary

Daily Weather History Graph

Daily Weather History Graph

Search for Another Location

Airport:

Trip Planner

Search our weather history database for the weather conditions in past years. The results will help you decide how hot, cold, wet, or windy it might be!

Date:

Astronomy

Dec. 02, 2013 Rise Set
Actual Time 6:40 AM CST 4:57 PM CST
Civil Twilight 6:14 AM CST 5:23 PM CST
Nautical Twilight 5:44 AM CST 5:53 PM CST
Astronomical Twilight 5:15 AM CST 6:22 PM CST
Moon 6:08 AM CST (12/2) 4:58 PM CST (12/2)
Length of Visible Light 11h 09m
Length of Day
10h 16m
Waning Crescent, 0% of the Moon is Illuminated
Dec 2
Waning Crescent
Dec 2
New
Dec 9
First Quarter
Dec 17
Full
Dec 25
Last Quarter

Hourly Weather History & Observations

Time (CST) Temp. Dew Point Humidity Pressure Visibility Wind Dir Wind Speed Gust Speed Precip Events Conditions
12:15 AM 55.9 °F 49.6 °F 79% 30.03 in 10.0 mi Calm Calm - N/A   Unknown
12:35 AM 55.2 °F 49.6 °F 81% 30.02 in 10.0 mi Calm Calm - N/A   Unknown
12:55 AM 54.1 °F 49.5 °F 84% 30.03 in 10.0 mi Calm Calm - N/A   Unknown
1:15 AM 53.8 °F 49.5 °F 85% 30.01 in 10.0 mi Calm Calm - N/A   Unknown
1:35 AM 52.7 °F 49.1 °F 88% 30.00 in 10.0 mi Calm Calm - N/A   Unknown
1:55 AM 53.1 °F 49.5 °F 88% 30.00 in 10.0 mi Calm Calm - N/A   Unknown
2:15 AM 53.6 °F 49.6 °F 86% 29.99 in 10.0 mi Calm Calm - N/A   Unknown
2:35 AM 53.4 °F 50.0 °F 88% 30.00 in 10.0 mi Calm Calm - N/A   Unknown
2:55 AM 53.6 °F 50.0 °F 88% 29.99 in 10.0 mi Calm Calm - N/A   Unknown
3:15 AM 53.1 °F 49.6 °F 88% 29.98 in 10.0 mi Calm Calm - N/A   Unknown
3:35 AM 52.7 °F 49.3 °F 88% 29.97 in 10.0 mi Calm Calm - N/A   Unknown
3:55 AM 51.4 °F 48.6 °F 90% 29.98 in 10.0 mi Calm Calm - N/A   Unknown
4:15 AM 51.8 °F 48.7 °F 89% 29.97 in 10.0 mi Calm Calm - N/A   Unknown
4:35 AM 51.8 °F 48.9 °F 90% 29.96 in 10.0 mi Calm Calm - N/A   Unknown
4:55 AM 52.7 °F 48.7 °F 86% 29.95 in 10.0 mi Calm Calm - N/A   Unknown
5:15 AM 52.5 °F 47.5 °F 83% 29.95 in 10.0 mi Calm Calm - N/A   Unknown
5:35 AM 50.4 °F 47.3 °F 89% 29.95 in 7.0 mi Calm Calm - N/A   Unknown
5:55 AM 51.6 °F 48.9 °F 90% 29.95 in 10.0 mi Calm Calm - N/A Thunderstorm Unknown
6:15 AM 51.8 °F 48.9 °F 90% 29.95 in 10.0 mi Calm Calm - N/A   Unknown
6:35 AM 51.8 °F 48.6 °F 89% 29.95 in 10.0 mi Calm Calm - N/A   Unknown
6:55 AM 52.0 °F 48.7 °F 89% 29.95 in 10.0 mi Calm Calm - N/A   Unknown
7:15 AM 52.2 °F 48.9 °F 89% 29.94 in 10.0 mi Calm Calm - N/A   Unknown
7:35 AM 52.7 °F 49.5 °F 89% 29.93 in 10.0 mi Calm Calm - N/A   Unknown
7:55 AM 54.5 °F 50.2 °F 85% 29.93 in 10.0 mi Calm Calm - N/A   Unknown
8:15 AM 57.9 °F 49.8 °F 74% 29.93 in 10.0 mi Calm Calm - N/A   Unknown
8:35 AM 58.3 °F 49.8 °F 73% 29.93 in 10.0 mi Calm Calm - N/A   Unknown
8:55 AM 60.3 °F 50.5 °F 70% 29.93 in 10.0 mi South 3.5 mph - N/A   Unknown
9:15 AM 63.1 °F 50.5 °F 63% 29.93 in 10.0 mi SSW 3.5 mph - N/A   Unknown
9:35 AM 64.6 °F 51.1 °F 62% 29.93 in 10.0 mi Calm Calm - N/A   Unknown
9:55 AM 65.5 °F 52.0 °F 62% 29.93 in 10.0 mi Calm Calm - N/A   Unknown
10:15 AM 67.3 °F 52.3 °F 59% 29.92 in 10.0 mi South 4.6 mph - N/A   Unknown
10:35 AM 68.9 °F 52.3 °F 55% 29.92 in 10.0 mi SW 6.9 mph - N/A   Unknown
10:55 AM 69.3 °F 53.8 °F 58% 29.90 in 10.0 mi SSW 6.9 mph - N/A   Unknown
11:15 AM 70.9 °F 55.9 °F 59% 29.89 in 10.0 mi SSW 6.9 mph - N/A   Mostly Cloudy
11:35 AM 71.2 °F 56.7 °F 60% 29.88 in 10.0 mi SSW 10.4 mph - N/A Rain Light Rain
11:55 AM 73.6 °F 57.4 °F 57% 29.86 in 10.0 mi SW 12.7 mph 17.3 mph N/A   Clear
12:15 PM 72.5 °F 57.2 °F 59% 29.85 in 10.0 mi SW 9.2 mph - N/A   Unknown
12:35 PM 73.0 °F 58.5 °F 60% 29.84 in 10.0 mi SW 17.3 mph 21.9 mph N/A   Unknown
12:55 PM 73.0 °F 58.8 °F 61% 29.83 in 10.0 mi WSW 15.0 mph 20.7 mph N/A   Unknown
1:15 PM 72.7 °F 59.0 °F 62% 29.82 in 10.0 mi SSW 10.4 mph 16.1 mph N/A   Unknown
1:35 PM 73.0 °F 58.8 °F 61% 29.82 in 10.0 mi SW 10.4 mph - N/A   Unknown
1:55 PM 72.5 °F 59.0 °F 62% 29.82 in 10.0 mi SW 10.4 mph 16.1 mph N/A   Unknown
2:15 PM 72.7 °F 59.2 °F 62% 29.81 in 10.0 mi SW 13.8 mph - N/A   Unknown
2:35 PM 72.7 °F 59.0 °F 62% 29.81 in 10.0 mi SW 10.4 mph 16.1 mph N/A   Unknown
2:55 PM 72.9 °F 59.7 °F 63% 29.79 in 10.0 mi SSW 8.1 mph - N/A   Unknown
3:15 PM 72.9 °F 59.4 °F 62% 29.79 in 10.0 mi SSW 12.7 mph - N/A   Unknown
3:35 PM 72.5 °F 59.5 °F 64% 29.79 in 10.0 mi SSW 12.7 mph - N/A   Unknown
3:55 PM 71.8 °F 59.7 °F 66% 29.79 in 10.0 mi SSW 12.7 mph - N/A   Unknown
4:15 PM 72.0 °F 59.9 °F 66% 29.78 in 10.0 mi SSW 10.4 mph - N/A   Unknown
4:35 PM 70.5 °F 59.9 °F 69% 29.79 in 10.0 mi SSW 6.9 mph - N/A   Unknown
4:55 PM 69.4 °F 59.9 °F 72% 29.79 in 10.0 mi South 5.8 mph - N/A   Unknown
5:15 PM 68.2 °F 59.9 °F 75% 29.79 in 10.0 mi South 6.9 mph - N/A   Unknown
5:35 PM 66.7 °F 59.5 °F 78% 29.79 in 10.0 mi SSW 4.6 mph - N/A   Unknown
5:55 PM 68.0 °F 60.3 °F 76% 29.79 in 10.0 mi SSW 6.9 mph - N/A   Unknown
6:20 PM 67.1 °F 60.3 °F 79% 29.79 in 10.0 mi South 8.1 mph - N/A   Unknown
6:35 PM 66.2 °F 60.1 °F 81% 29.79 in 10.0 mi South 6.9 mph - N/A   Unknown
6:55 PM 65.8 °F 59.9 °F 81% 29.79 in 10.0 mi South 8.1 mph - N/A   Unknown
7:15 PM 65.5 °F 59.9 °F 82% 29.79 in 10.0 mi South 6.9 mph - N/A   Unknown
7:35 PM 65.3 °F 59.9 °F 83% 29.79 in 10.0 mi South 6.9 mph - N/A   Unknown
7:55 PM 64.9 °F 59.9 °F 84% 29.79 in 10.0 mi SSW 6.9 mph - N/A   Unknown
8:15 PM 64.4 °F 59.4 °F 84% 29.80 in 10.0 mi SSW 4.6 mph - N/A   Unknown
8:35 PM 63.7 °F 59.4 °F 86% 29.81 in 10.0 mi SSW 5.8 mph - N/A   Unknown
8:55 PM 63.0 °F 58.8 °F 86% 29.82 in 10.0 mi SSW 4.6 mph - N/A   Unknown
9:15 PM 63.0 °F 59.0 °F 87% 29.82 in 10.0 mi SSW 4.6 mph - N/A   Unknown
9:35 PM 62.2 °F 58.6 °F 88% 29.83 in 10.0 mi SSW 4.6 mph - N/A   Unknown
9:55 PM 63.0 °F 59.4 °F 88% 29.83 in 10.0 mi SSW 6.9 mph - N/A   Unknown
10:15 PM 62.6 °F 59.0 °F 88% 29.83 in 10.0 mi SSW 5.8 mph - N/A   Unknown
10:35 PM 62.2 °F 59.0 °F 89% 29.82 in 10.0 mi SSW 4.6 mph - N/A   Unknown
10:55 PM 61.9 °F 59.0 °F 90% 29.82 in 10.0 mi SW 4.6 mph - N/A   Unknown
11:15 PM 61.2 °F 58.1 °F 90% 29.82 in 7.0 mi SSW 4.6 mph - N/A   Unknown
11:35 PM 61.2 °F 58.5 °F 91% 29.81 in 5.0 mi SW 3.5 mph - N/A   Mist
11:55 PM 60.8 °F 57.9 °F 90% 29.80 in 2.5 mi SSW 3.5 mph - N/A   Mist